sensor_id;sensor_type;location;lat;lon;timestamp;P1;durP1;ratioP1;P2;durP2;ratioP2
39294;SDS011;52361;52.100;5.248;2023-02-13T00:01:55;14.2;;;8.1;;
39294;SDS011;52361;52.100;5.248;2023-02-13T00:03:32;23.4;;;9.6;;
39294;SDS011;52361;52.100;5.248;2023-02-13T00:05:09;19.2;;;9.6;;
39294;SDS011;52361;52.100;5.248;2023-02-13T00:08:23;16.9;;;8.4;;
39294;SDS011;52361;52.100;5.248;2023-02-13T00:09:59;15.0;;;8.4;;
39294;SDS011;52361;52.100;5.248;2023-02-13T00:11:37;15.4;;;9.31;;
39294;SDS011;52361;52.100;5.248;2023-02-13T00:13:14;17.91;;;9.21;;
39294;SDS011;52361;52.100;5.248;2023-02-13T00:16:28;21.6;;;9.71;;
39294;SDS011;52361;52.100;5.248;2023-02-13T00:18:04;15.4;;;8.31;;
39294;SDS011;52361;52.100;5.248;2023-02-13T00:19:42;16.5;;;8.9;;
39294;SDS011;52361;52.100;5.248;2023-02-13T00:22:57;14.7;;;8.5;;
39294;SDS011;52361;52.100;5.248;2023-02-13T00:24:33;14.5;;;8.4;;
39294;SDS011;52361;52.100;5.248;2023-02-13T00:26:10;16.9;;;9.21;;
39294;SDS011;52361;52.100;5.248;2023-02-13T00:27:50;14.5;;;7.7;;
39294;SDS011;52361;52.100;5.248;2023-02-13T00:31:05;14.4;;;8.1;;
39294;SDS011;52361;52.100;5.248;2023-02-13T00:32:44;23.6;;;8.6;;
39294;SDS011;52361;52.100;5.248;2023-02-13T00:34:21;16.3;;;8.31;;
39294;SDS011;52361;52.100;5.248;2023-02-13T00:37:40;18.8;;;9.0;;
39294;SDS011;52361;52.100;5.248;2023-02-13T00:39:17;16.2;;;7.8;;
39294;SDS011;52361;52.100;5.248;2023-02-13T00:40:54;18.61;;;7.6;;
39294;SDS011;52361;52.100;5.248;2023-02-13T00:42:30;19.3;;;8.81;;
39294;SDS011;52361;52.100;5.248;2023-02-13T00:45:44;18.0;;;9.1;;
39294;SDS011;52361;52.100;5.248;2023-02-13T00:47:21;15.3;;;8.2;;
39294;SDS011;52361;52.100;5.248;2023-02-13T00:48:57;16.11;;;8.4;;
39294;SDS011;52361;52.100;5.248;2023-02-13T00:52:10;18.61;;;8.6;;
39294;SDS011;52361;52.100;5.248;2023-02-13T00:53:47;18.5;;;8.5;;
39294;SDS011;52361;52.100;5.248;2023-02-13T00:55:24;16.61;;;7.7;;
39294;SDS011;52361;52.100;5.248;2023-02-13T00:58:39;16.3;;;7.0;;
39294;SDS011;52361;52.100;5.248;2023-02-13T01:00:15;16.9;;;7.8;;
39294;SDS011;52361;52.100;5.248;2023-02-13T01:01:52;18.11;;;8.31;;
39294;SDS011;52361;52.100;5.248;2023-02-13T01:03:29;16.11;;;7.2;;
39294;SDS011;52361;52.100;5.248;2023-02-13T01:06:43;17.7;;;8.81;;
39294;SDS011;52361;52.100;5.248;2023-02-13T01:08:20;15.2;;;7.6;;
39294;SDS011;52361;52.100;5.248;2023-02-13T01:09:56;19.3;;;7.5;;
39294;SDS011;52361;52.100;5.248;2023-02-13T01:13:10;13.6;;;7.2;;
39294;SDS011;52361;52.100;5.248;2023-02-13T01:14:48;16.0;;;7.1;;
39294;SDS011;52361;52.100;5.248;2023-02-13T01:16:25;16.2;;;8.0;;
39294;SDS011;52361;52.100;5.248;2023-02-13T01:18:03;12.3;;;6.9;;
39294;SDS011;52361;52.100;5.248;2023-02-13T01:21:18;12.3;;;6.8;;
39294;SDS011;52361;52.100;5.248;2023-02-13T01:22:56;34.71;;;8.0;;
39294;SDS011;52361;52.100;5.248;2023-02-13T01:24:33;12.7;;;7.0;;
39294;SDS011;52361;52.100;5.248;2023-02-13T01:27:53;16.8;;;8.71;;
39294;SDS011;52361;52.100;5.248;2023-02-13T01:29:30;14.1;;;7.0;;
39294;SDS011;52361;52.100;5.248;2023-02-13T01:31:07;18.7;;;8.4;;
39294;SDS011;52361;52.100;5.248;2023-02-13T01:32:45;16.61;;;7.7;;
39294;SDS011;52361;52.100;5.248;2023-02-13T01:36:04;13.1;;;5.9;;
39294;SDS011;52361;52.100;5.248;2023-02-13T01:37:42;14.7;;;8.2;;
39294;SDS011;52361;52.100;5.248;2023-02-13T01:39:19;16.0;;;7.4;;
39294;SDS011;52361;52.100;5.248;2023-02-13T01:42:32;15.8;;;6.9;;
39294;SDS011;52361;52.100;5.248;2023-02-13T01:45:18;14.3;;;7.3;;
39294;SDS011;52361;52.100;5.248;2023-02-13T01:47:06;12.4;;;6.7;;
39294;SDS011;52361;52.100;5.248;2023-02-13T01:48:44;12.0;;;6.9;;
39294;SDS011;52361;52.100;5.248;2023-02-13T01:50:24;11.8;;;5.6;;
39294;SDS011;52361;52.100;5.248;2023-02-13T01:52:07;11.3;;;6.2;;
39294;SDS011;52361;52.100;5.248;2023-02-13T01:53:46;18.8;;;8.1;;
39294;SDS011;52361;52.100;5.248;2023-02-13T01:57:07;16.9;;;8.0;;
39294;SDS011;52361;52.100;5.248;2023-02-13T01:58:50;14.6;;;6.8;;
39294;SDS011;52361;52.100;5.248;2023-02-13T02:00:34;15.9;;;8.31;;
39294;SDS011;52361;52.100;5.248;2023-02-13T02:02:13;12.7;;;6.3;;
39294;SDS011;52361;52.100;5.248;2023-02-13T02:05:33;15.3;;;7.3;;
39294;SDS011;52361;52.100;5.248;2023-02-13T02:07:12;13.6;;;6.9;;
39294;SDS011;52361;52.100;5.248;2023-02-13T02:08:58;15.7;;;8.1;;
39294;SDS011;52361;52.100;5.248;2023-02-13T02:10:40;13.3;;;6.7;;
39294;SDS011;52361;52.100;5.248;2023-02-13T02:14:02;13.4;;;6.8;;
39294;SDS011;52361;52.100;5.248;2023-02-13T02:15:39;15.3;;;6.9;;
39294;SDS011;52361;52.100;5.248;2023-02-13T02:17:17;15.0;;;6.6;;
39294;SDS011;52361;52.100;5.248;2023-02-13T02:18:57;13.2;;;6.4;;
39294;SDS011;52361;52.100;5.248;2023-02-13T02:23:33;15.1;;;7.2;;
39294;SDS011;52361;52.100;5.248;2023-02-13T02:26:58;14.8;;;6.9;;
39294;SDS011;52361;52.100;5.248;2023-02-13T02:30:37;16.0;;;6.8;;
39294;SDS011;52361;52.100;5.248;2023-02-13T02:34:16;14.0;;;6.7;;
39294;SDS011;52361;52.100;5.248;2023-02-13T02:36:05;17.61;;;7.0;;
39294;SDS011;52361;52.100;5.248;2023-02-13T02:38:07;14.1;;;6.7;;
39294;SDS011;52361;52.100;5.248;2023-02-13T02:40:13;14.3;;;7.0;;
39294;SDS011;52361;52.100;5.248;2023-02-13T02:42:02;11.0;;;5.9;;
39294;SDS011;52361;52.100;5.248;2023-02-13T02:43:54;15.9;;;6.2;;
39294;SDS011;52361;52.100;5.248;2023-02-13T02:50:07;13.5;;;7.0;;
39294;SDS011;52361;52.100;5.248;2023-02-13T02:51:54;14.3;;;6.0;;
39294;SDS011;52361;52.100;5.248;2023-02-13T02:53:40;15.1;;;7.0;;
39294;SDS011;52361;52.100;5.248;2023-02-13T02:55:29;13.9;;;6.8;;
39294;SDS011;52361;52.100;5.248;2023-02-13T02:57:13;15.8;;;6.9;;
39294;SDS011;52361;52.100;5.248;2023-02-13T03:07:16;10.6;;;5.6;;
39294;SDS011;52361;52.100;5.248;2023-02-13T03:13:29;17.91;;;8.0;;
39294;SDS011;52361;52.100;5.248;2023-02-13T03:15:16;12.6;;;6.2;;
39294;SDS011;52361;52.100;5.248;2023-02-13T03:22:25;14.5;;;6.7;;
39294;SDS011;52361;52.100;5.248;2023-02-13T03:24:12;17.11;;;7.6;;
39294;SDS011;52361;52.100;5.248;2023-02-13T03:26:05;11.3;;;6.4;;
39294;SDS011;52361;52.100;5.248;2023-02-13T03:30:35;18.61;;;7.7;;
39294;SDS011;52361;52.100;5.248;2023-02-13T03:32:35;11.7;;;6.0;;
39294;SDS011;52361;52.100;5.248;2023-02-13T03:34:21;13.0;;;7.7;;
39294;SDS011;52361;52.100;5.248;2023-02-13T03:40:08;16.11;;;7.1;;
39294;SDS011;52361;52.100;5.248;2023-02-13T03:41:53;14.9;;;7.6;;
39294;SDS011;52361;52.100;5.248;2023-02-13T03:43:36;16.0;;;7.9;;
39294;SDS011;52361;52.100;5.248;2023-02-13T03:45:52;13.6;;;6.5;;
39294;SDS011;52361;52.100;5.248;2023-02-13T03:47:30;16.5;;;7.0;;
39294;SDS011;52361;52.100;5.248;2023-02-13T03:50:12;17.5;;;7.2;;
39294;SDS011;52361;52.100;5.248;2023-02-13T03:51:52;21.8;;;7.8;;
39294;SDS011;52361;52.100;5.248;2023-02-13T03:53:33;17.11;;;6.8;;
39294;SDS011;52361;52.100;5.248;2023-02-13T03:59:25;14.6;;;6.8;;
39294;SDS011;52361;52.100;5.248;2023-02-13T04:02:50;19.7;;;7.8;;
39294;SDS011;52361;52.100;5.248;2023-02-13T04:04:34;11.2;;;6.7;;
39294;SDS011;52361;52.100;5.248;2023-02-13T04:06:19;16.61;;;7.1;;
39294;SDS011;52361;52.100;5.248;2023-02-13T04:08:02;8.4;;;5.2;;
39294;SDS011;52361;52.100;5.248;2023-02-13T04:09:40;17.5;;;8.0;;
39294;SDS011;52361;52.100;5.248;2023-02-13T04:13:06;13.0;;;6.0;;
39294;SDS011;52361;52.100;5.248;2023-02-13T04:14:51;13.9;;;7.2;;
39294;SDS011;52361;52.100;5.248;2023-02-13T04:16:34;18.3;;;8.2;;
39294;SDS011;52361;52.100;5.248;2023-02-13T04:18:16;13.1;;;7.1;;
39294;SDS011;52361;52.100;5.248;2023-02-13T04:21:35;15.3;;;7.1;;
39294;SDS011;52361;52.100;5.248;2023-02-13T04:23:13;16.3;;;7.8;;
39294;SDS011;52361;52.100;5.248;2023-02-13T04:24:51;16.5;;;6.4;;
39294;SDS011;52361;52.100;5.248;2023-02-13T04:26:31;17.41;;;8.0;;
39294;SDS011;52361;52.100;5.248;2023-02-13T04:29:47;16.8;;;7.7;;
39294;SDS011;52361;52.100;5.248;2023-02-13T04:31:23;18.3;;;6.8;;
39294;SDS011;52361;52.100;5.248;2023-02-13T04:32:59;14.8;;;7.6;;
39294;SDS011;52361;52.100;5.248;2023-02-13T04:36:12;13.5;;;7.2;;
39294;SDS011;52361;52.100;5.248;2023-02-13T04:37:49;14.7;;;7.6;;
39294;SDS011;52361;52.100;5.248;2023-02-13T04:39:25;15.2;;;6.9;;
39294;SDS011;52361;52.100;5.248;2023-02-13T04:41:01;15.1;;;6.9;;
39294;SDS011;52361;52.100;5.248;2023-02-13T04:44:13;13.3;;;6.4;;
39294;SDS011;52361;52.100;5.248;2023-02-13T04:45:50;14.2;;;7.0;;
39294;SDS011;52361;52.100;5.248;2023-02-13T04:47:27;16.4;;;7.2;;
39294;SDS011;52361;52.100;5.248;2023-02-13T04:50:39;17.3;;;8.5;;
39294;SDS011;52361;52.100;5.248;2023-02-13T04:52:15;20.7;;;7.3;;
39294;SDS011;52361;52.100;5.248;2023-02-13T04:53:51;16.4;;;7.6;;
39294;SDS011;52361;52.100;5.248;2023-02-13T04:57:05;13.9;;;6.6;;
39294;SDS011;52361;52.100;5.248;2023-02-13T04:58:41;20.41;;;8.4;;
39294;SDS011;52361;52.100;5.248;2023-02-13T05:00:17;15.7;;;7.2;;
39294;SDS011;52361;52.100;5.248;2023-02-13T05:01:55;17.0;;;7.5;;
39294;SDS011;52361;52.100;5.248;2023-02-13T05:05:07;19.61;;;8.31;;
39294;SDS011;52361;52.100;5.248;2023-02-13T05:06:44;19.11;;;8.71;;
39294;SDS011;52361;52.100;5.248;2023-02-13T05:08:20;18.7;;;8.0;;
39294;SDS011;52361;52.100;5.248;2023-02-13T05:11:32;14.5;;;6.8;;
39294;SDS011;52361;52.100;5.248;2023-02-13T05:13:08;21.2;;;9.9;;
39294;SDS011;52361;52.100;5.248;2023-02-13T05:14:44;15.6;;;7.0;;
39294;SDS011;52361;52.100;5.248;2023-02-13T05:17:57;13.2;;;7.2;;
39294;SDS011;52361;52.100;5.248;2023-02-13T05:19:33;14.0;;;7.5;;
39294;SDS011;52361;52.100;5.248;2023-02-13T05:23:31;17.7;;;8.31;;
39294;SDS011;52361;52.100;5.248;2023-02-13T05:25:07;15.7;;;7.9;;
39294;SDS011;52361;52.100;5.248;2023-02-13T05:29:23;12.3;;;6.3;;
39294;SDS011;52361;52.100;5.248;2023-02-13T05:31:01;15.5;;;7.3;;
39294;SDS011;52361;52.100;5.248;2023-02-13T05:32:37;16.9;;;8.0;;
39294;SDS011;52361;52.100;5.248;2023-02-13T05:34:13;17.61;;;7.4;;
39294;SDS011;52361;52.100;5.248;2023-02-13T05:35:50;18.41;;;8.71;;
39294;SDS011;52361;52.100;5.248;2023-02-13T05:37:26;20.41;;;8.0;;
39294;SDS011;52361;52.100;5.248;2023-02-13T05:40:39;16.5;;;8.5;;
39294;SDS011;52361;52.100;5.248;2023-02-13T05:42:15;16.5;;;8.5;;
39294;SDS011;52361;52.100;5.248;2023-02-13T05:43:51;18.2;;;8.6;;
39294;SDS011;52361;52.100;5.248;2023-02-13T05:47:03;15.2;;;7.5;;
39294;SDS011;52361;52.100;5.248;2023-02-13T05:48:40;16.2;;;7.9;;
39294;SDS011;52361;52.100;5.248;2023-02-13T05:50:16;14.1;;;8.31;;
39294;SDS011;52361;52.100;5.248;2023-02-13T05:53:28;18.61;;;8.71;;
39294;SDS011;52361;52.100;5.248;2023-02-13T05:55:05;12.4;;;7.1;;
39294;SDS011;52361;52.100;5.248;2023-02-13T05:56:42;18.2;;;8.2;;
39294;SDS011;52361;52.100;5.248;2023-02-13T05:58:19;19.11;;;7.8;;
39294;SDS011;52361;52.100;5.248;2023-02-13T06:01:32;17.7;;;8.1;;
39294;SDS011;52361;52.100;5.248;2023-02-13T06:03:09;15.9;;;7.2;;
39294;SDS011;52361;52.100;5.248;2023-02-13T06:04:45;13.9;;;7.1;;
39294;SDS011;52361;52.100;5.248;2023-02-13T06:07:58;17.8;;;8.6;;
39294;SDS011;52361;52.100;5.248;2023-02-13T06:09:34;17.5;;;7.5;;
39294;SDS011;52361;52.100;5.248;2023-02-13T06:11:10;21.0;;;7.7;;
39294;SDS011;52361;52.100;5.248;2023-02-13T06:14:22;23.1;;;8.4;;
39294;SDS011;52361;52.100;5.248;2023-02-13T06:15:58;17.8;;;8.71;;
39294;SDS011;52361;52.100;5.248;2023-02-13T06:17:35;18.3;;;8.6;;
39294;SDS011;52361;52.100;5.248;2023-02-13T06:20:47;16.8;;;8.31;;
39294;SDS011;52361;52.100;5.248;2023-02-13T06:22:23;18.3;;;8.9;;
39294;SDS011;52361;52.100;5.248;2023-02-13T06:25:36;17.0;;;8.31;;
39294;SDS011;52361;52.100;5.248;2023-02-13T06:28:49;22.0;;;9.4;;
39294;SDS011;52361;52.100;5.248;2023-02-13T06:30:25;16.3;;;7.2;;
39294;SDS011;52361;52.100;5.248;2023-02-13T06:32:01;17.3;;;8.31;;
39294;SDS011;52361;52.100;5.248;2023-02-13T06:35:15;17.11;;;7.8;;
39294;SDS011;52361;52.100;5.248;2023-02-13T06:36:52;17.3;;;8.71;;
39294;SDS011;52361;52.100;5.248;2023-02-13T06:38:28;21.7;;;8.5;;
39294;SDS011;52361;52.100;5.248;2023-02-13T06:41:42;16.9;;;8.5;;
39294;SDS011;52361;52.100;5.248;2023-02-13T06:43:18;17.11;;;8.6;;
39294;SDS011;52361;52.100;5.248;2023-02-13T06:44:55;17.8;;;8.4;;
39294;SDS011;52361;52.100;5.248;2023-02-13T06:46:31;21.3;;;8.6;;
39294;SDS011;52361;52.100;5.248;2023-02-13T06:49:43;20.2;;;8.5;;
39294;SDS011;52361;52.100;5.248;2023-02-13T06:51:19;15.0;;;8.1;;
39294;SDS011;52361;52.100;5.248;2023-02-13T06:52:55;20.2;;;8.9;;
39294;SDS011;52361;52.100;5.248;2023-02-13T06:56:08;20.8;;;8.2;;
39294;SDS011;52361;52.100;5.248;2023-02-13T06:57:45;20.3;;;8.5;;
39294;SDS011;52361;52.100;5.248;2023-02-13T06:59:22;17.8;;;7.3;;
39294;SDS011;52361;52.100;5.248;2023-02-13T07:02:35;14.5;;;8.4;;
39294;SDS011;52361;52.100;5.248;2023-02-13T07:04:12;17.61;;;9.31;;
39294;SDS011;52361;52.100;5.248;2023-02-13T07:05:50;17.8;;;8.5;;
39294;SDS011;52361;52.100;5.248;2023-02-13T07:07:27;20.9;;;8.71;;
39294;SDS011;52361;52.100;5.248;2023-02-13T07:10:43;17.5;;;8.81;;
39294;SDS011;52361;52.100;5.248;2023-02-13T07:12:20;20.5;;;9.81;;
39294;SDS011;52361;52.100;5.248;2023-02-13T07:13:56;18.61;;;10.3;;
39294;SDS011;52361;52.100;5.248;2023-02-13T07:17:10;19.0;;;8.81;;
39294;SDS011;52361;52.100;5.248;2023-02-13T07:18:46;17.7;;;8.6;;
39294;SDS011;52361;52.100;5.248;2023-02-13T07:20:23;17.2;;;8.81;;
39294;SDS011;52361;52.100;5.248;2023-02-13T07:22:00;20.8;;;8.81;;
39294;SDS011;52361;52.100;5.248;2023-02-13T07:25:12;18.2;;;9.21;;
39294;SDS011;52361;52.100;5.248;2023-02-13T07:26:48;19.3;;;8.4;;
39294;SDS011;52361;52.100;5.248;2023-02-13T07:28:24;20.8;;;9.21;;
39294;SDS011;52361;52.100;5.248;2023-02-13T07:31:39;16.3;;;8.71;;
39294;SDS011;52361;52.100;5.248;2023-02-13T07:33:15;18.61;;;8.4;;
39294;SDS011;52361;52.100;5.248;2023-02-13T07:34:51;22.5;;;10.9;;
39294;SDS011;52361;52.100;5.248;2023-02-13T07:38:03;19.8;;;9.5;;
39294;SDS011;52361;52.100;5.248;2023-02-13T07:39:40;21.3;;;9.81;;
39294;SDS011;52361;52.100;5.248;2023-02-13T07:41:16;25.4;;;9.81;;
39294;SDS011;52361;52.100;5.248;2023-02-13T07:44:29;21.9;;;9.81;;
39294;SDS011;52361;52.100;5.248;2023-02-13T07:46:05;20.5;;;9.31;;
39294;SDS011;52361;52.100;5.248;2023-02-13T07:47:41;29.1;;;10.7;;
39294;SDS011;52361;52.100;5.248;2023-02-13T07:49:17;20.0;;;9.31;;
39294;SDS011;52361;52.100;5.248;2023-02-13T07:52:36;19.2;;;9.81;;
39294;SDS011;52361;52.100;5.248;2023-02-13T07:54:12;23.1;;;9.5;;
39294;SDS011;52361;52.100;5.248;2023-02-13T07:55:49;19.5;;;10.4;;
39294;SDS011;52361;52.100;5.248;2023-02-13T07:59:01;17.11;;;9.6;;
39294;SDS011;52361;52.100;5.248;2023-02-13T08:00:38;18.0;;;8.6;;
39294;SDS011;52361;52.100;5.248;2023-02-13T08:02:14;19.0;;;9.5;;
39294;SDS011;52361;52.100;5.248;2023-02-13T08:03:51;20.9;;;10.0;;
39294;SDS011;52361;52.100;5.248;2023-02-13T08:07:05;22.6;;;9.1;;
39294;SDS011;52361;52.100;5.248;2023-02-13T08:08:41;20.3;;;8.71;;
39294;SDS011;52361;52.100;5.248;2023-02-13T08:12:07;18.91;;;9.81;;
39294;SDS011;52361;52.100;5.248;2023-02-13T08:13:51;22.5;;;9.6;;
39294;SDS011;52361;52.100;5.248;2023-02-13T08:15:28;20.11;;;9.1;;
39294;SDS011;52361;52.100;5.248;2023-02-13T08:17:04;26.2;;;11.0;;
39294;SDS011;52361;52.100;5.248;2023-02-13T08:18:40;19.8;;;9.31;;
39294;SDS011;52361;52.100;5.248;2023-02-13T08:21:53;15.5;;;9.6;;
39294;SDS011;52361;52.100;5.248;2023-02-13T08:23:29;17.5;;;9.1;;
39294;SDS011;52361;52.100;5.248;2023-02-13T08:25:06;17.7;;;9.0;;
39294;SDS011;52361;52.100;5.248;2023-02-13T08:28:19;19.3;;;9.0;;
39294;SDS011;52361;52.100;5.248;2023-02-13T08:29:55;18.8;;;9.5;;
39294;SDS011;52361;52.100;5.248;2023-02-13T08:31:32;22.3;;;9.0;;
39294;SDS011;52361;52.100;5.248;2023-02-13T08:33:08;23.8;;;9.81;;
39294;SDS011;52361;52.100;5.248;2023-02-13T08:36:21;19.61;;;10.5;;
39294;SDS011;52361;52.100;5.248;2023-02-13T08:38:00;22.6;;;10.6;;
39294;SDS011;52361;52.100;5.248;2023-02-13T08:39:37;24.2;;;10.1;;
39294;SDS011;52361;52.100;5.248;2023-02-13T08:42:50;17.7;;;10.0;;
39294;SDS011;52361;52.100;5.248;2023-02-13T08:44:27;22.1;;;9.71;;
39294;SDS011;52361;52.100;5.248;2023-02-13T08:46:03;21.6;;;9.81;;
39294;SDS011;52361;52.100;5.248;2023-02-13T08:49:16;22.3;;;9.9;;
39294;SDS011;52361;52.100;5.248;2023-02-13T08:50:52;15.6;;;7.7;;
39294;SDS011;52361;52.100;5.248;2023-02-13T08:52:29;20.5;;;8.9;;
39294;SDS011;52361;52.100;5.248;2023-02-13T08:54:05;25.6;;;9.6;;
39294;SDS011;52361;52.100;5.248;2023-02-13T08:57:17;19.3;;;7.6;;
39294;SDS011;52361;52.100;5.248;2023-02-13T08:58:54;20.41;;;10.0;;
39294;SDS011;52361;52.100;5.248;2023-02-13T09:00:30;17.0;;;8.0;;
39294;SDS011;52361;52.100;5.248;2023-02-13T09:03:49;17.41;;;7.2;;
39294;SDS011;52361;52.100;5.248;2023-02-13T09:05:25;18.91;;;9.31;;
39294;SDS011;52361;52.100;5.248;2023-02-13T09:07:02;18.91;;;9.5;;
39294;SDS011;52361;52.100;5.248;2023-02-13T09:10:15;21.0;;;8.2;;
39294;SDS011;52361;52.100;5.248;2023-02-13T09:11:55;16.3;;;8.4;;
39294;SDS011;52361;52.100;5.248;2023-02-13T09:13:33;14.6;;;8.81;;
39294;SDS011;52361;52.100;5.248;2023-02-13T09:15:11;16.8;;;8.2;;
39294;SDS011;52361;52.100;5.248;2023-02-13T09:18:23;17.5;;;8.2;;
39294;SDS011;52361;52.100;5.248;2023-02-13T09:19:59;15.6;;;7.5;;
39294;SDS011;52361;52.100;5.248;2023-02-13T09:21:35;18.41;;;9.31;;
39294;SDS011;52361;52.100;5.248;2023-02-13T09:24:47;18.41;;;9.31;;
39294;SDS011;52361;52.100;5.248;2023-02-13T09:26:24;14.8;;;6.8;;
39294;SDS011;52361;52.100;5.248;2023-02-13T09:28:00;15.9;;;8.1;;
39294;SDS011;52361;52.100;5.248;2023-02-13T09:29:36;18.11;;;8.71;;
39294;SDS011;52361;52.100;5.248;2023-02-13T09:32:53;17.2;;;7.9;;
39294;SDS011;52361;52.100;5.248;2023-02-13T09:34:30;14.8;;;8.6;;
39294;SDS011;52361;52.100;5.248;2023-02-13T09:36:06;16.0;;;7.7;;
39294;SDS011;52361;52.100;5.248;2023-02-13T09:39:22;14.6;;;7.7;;
39294;SDS011;52361;52.100;5.248;2023-02-13T09:40:59;16.11;;;7.4;;
39294;SDS011;52361;52.100;5.248;2023-02-13T09:42:37;14.5;;;7.3;;
39294;SDS011;52361;52.100;5.248;2023-02-13T09:44:33;18.11;;;7.6;;
39294;SDS011;52361;52.100;5.248;2023-02-13T09:47:55;19.5;;;8.0;;
39294;SDS011;52361;52.100;5.248;2023-02-13T09:49:32;14.1;;;7.6;;
39294;SDS011;52361;52.100;5.248;2023-02-13T09:51:13;13.0;;;7.0;;
39294;SDS011;52361;52.100;5.248;2023-02-13T09:52:53;12.3;;;6.8;;
39294;SDS011;52361;52.100;5.248;2023-02-13T09:56:09;15.0;;;7.9;;
39294;SDS011;52361;52.100;5.248;2023-02-13T09:57:52;18.8;;;7.8;;
39294;SDS011;52361;52.100;5.248;2023-02-13T09:59:39;12.8;;;6.9;;
39294;SDS011;52361;52.100;5.248;2023-02-13T10:01:25;12.4;;;6.4;;
39294;SDS011;52361;52.100;5.248;2023-02-13T10:03:23;13.7;;;8.0;;
39294;SDS011;52361;52.100;5.248;2023-02-13T10:07:00;11.2;;;5.7;;
39294;SDS011;52361;52.100;5.248;2023-02-13T10:08:52;12.3;;;7.3;;
39294;SDS011;52361;52.100;5.248;2023-02-13T10:10:43;12.2;;;6.2;;
39294;SDS011;52361;52.100;5.248;2023-02-13T10:12:29;14.3;;;7.6;;
39294;SDS011;52361;52.100;5.248;2023-02-13T10:14:22;13.3;;;6.7;;
39294;SDS011;52361;52.100;5.248;2023-02-13T10:16:07;13.5;;;7.2;;
39294;SDS011;52361;52.100;5.248;2023-02-13T10:17:49;14.2;;;7.3;;
39294;SDS011;52361;52.100;5.248;2023-02-13T10:21:18;14.7;;;7.3;;
39294;SDS011;52361;52.100;5.248;2023-02-13T10:22:58;15.1;;;7.5;;
39294;SDS011;52361;52.100;5.248;2023-02-13T10:24:45;17.11;;;7.7;;
39294;SDS011;52361;52.100;5.248;2023-02-13T10:26:41;12.1;;;6.7;;
39294;SDS011;52361;52.100;5.248;2023-02-13T10:28:26;14.1;;;6.9;;
39294;SDS011;52361;52.100;5.248;2023-02-13T10:31:56;14.5;;;7.7;;
39294;SDS011;52361;52.100;5.248;2023-02-13T10:33:39;15.0;;;7.7;;
39294;SDS011;52361;52.100;5.248;2023-02-13T10:35:23;12.2;;;6.7;;
39294;SDS011;52361;52.100;5.248;2023-02-13T10:37:07;12.0;;;7.5;;
39294;SDS011;52361;52.100;5.248;2023-02-13T10:38:54;13.1;;;6.7;;
39294;SDS011;52361;52.100;5.248;2023-02-13T10:42:22;15.4;;;7.7;;
39294;SDS011;52361;52.100;5.248;2023-02-13T10:44:15;11.8;;;7.0;;
39294;SDS011;52361;52.100;5.248;2023-02-13T10:46:09;14.9;;;6.6;;
39294;SDS011;52361;52.100;5.248;2023-02-13T10:47:59;12.5;;;7.8;;
39294;SDS011;52361;52.100;5.248;2023-02-13T10:49:52;12.5;;;7.8;;
39294;SDS011;52361;52.100;5.248;2023-02-13T10:53:25;15.0;;;7.7;;
39294;SDS011;52361;52.100;5.248;2023-02-13T10:57:12;12.6;;;6.5;;
39294;SDS011;52361;52.100;5.248;2023-02-13T10:59:02;15.6;;;7.5;;
39294;SDS011;52361;52.100;5.248;2023-02-13T11:00:54;15.1;;;7.4;;
39294;SDS011;52361;52.100;5.248;2023-02-13T11:02:36;10.21;;;6.7;;
39294;SDS011;52361;52.100;5.248;2023-02-13T11:04:13;14.5;;;6.6;;
39294;SDS011;52361;52.100;5.248;2023-02-13T11:05:53;15.0;;;7.0;;
39294;SDS011;52361;52.100;5.248;2023-02-13T11:09:12;11.7;;;6.6;;
39294;SDS011;52361;52.100;5.248;2023-02-13T11:10:48;13.8;;;6.3;;
39294;SDS011;52361;52.100;5.248;2023-02-13T11:12:26;10.7;;;5.9;;
39294;SDS011;52361;52.100;5.248;2023-02-13T11:15:55;10.3;;;6.1;;
39294;SDS011;52361;52.100;5.248;2023-02-13T11:17:35;11.4;;;6.3;;
39294;SDS011;52361;52.100;5.248;2023-02-13T11:19:17;10.7;;;6.1;;
39294;SDS011;52361;52.100;5.248;2023-02-13T11:20:57;11.2;;;5.6;;
39294;SDS011;52361;52.100;5.248;2023-02-13T11:25:56;11.5;;;7.2;;
39294;SDS011;52361;52.100;5.248;2023-02-13T11:27:36;15.1;;;7.1;;
39294;SDS011;52361;52.100;5.248;2023-02-13T11:29:15;12.0;;;6.8;;
39294;SDS011;52361;52.100;5.248;2023-02-13T11:31:07;13.2;;;6.5;;
39294;SDS011;52361;52.100;5.248;2023-02-13T11:34:33;14.9;;;6.0;;
39294;SDS011;52361;52.100;5.248;2023-02-13T11:36:11;14.0;;;6.9;;
39294;SDS011;52361;52.100;5.248;2023-02-13T11:37:53;11.6;;;6.5;;
39294;SDS011;52361;52.100;5.248;2023-02-13T11:39:55;11.9;;;6.5;;
39294;SDS011;52361;52.100;5.248;2023-02-13T11:41:36;11.1;;;6.6;;
39294;SDS011;52361;52.100;5.248;2023-02-13T11:45:04;12.6;;;6.4;;
39294;SDS011;52361;52.100;5.248;2023-02-13T11:46:54;14.5;;;6.6;;
39294;SDS011;52361;52.100;5.248;2023-02-13T11:48:33;13.5;;;6.3;;
39294;SDS011;52361;52.100;5.248;2023-02-13T11:50:18;12.3;;;6.0;;
39294;SDS011;52361;52.100;5.248;2023-02-13T11:52:06;13.9;;;6.5;;
39294;SDS011;52361;52.100;5.248;2023-02-13T11:54:00;11.1;;;5.3;;
39294;SDS011;52361;52.100;5.248;2023-02-13T11:57:17;14.8;;;7.0;;
39294;SDS011;52361;52.100;5.248;2023-02-13T11:58:59;14.7;;;6.2;;
39294;SDS011;52361;52.100;5.248;2023-02-13T12:00:39;11.6;;;6.7;;
39294;SDS011;52361;52.100;5.248;2023-02-13T12:02:19;12.3;;;6.6;;
39294;SDS011;52361;52.100;5.248;2023-02-13T12:05:41;10.1;;;5.5;;
39294;SDS011;52361;52.100;5.248;2023-02-13T12:07:35;10.4;;;5.8;;
39294;SDS011;52361;52.100;5.248;2023-02-13T12:09:13;13.9;;;6.3;;
39294;SDS011;52361;52.100;5.248;2023-02-13T12:10:50;13.1;;;6.7;;
39294;SDS011;52361;52.100;5.248;2023-02-13T12:14:15;13.4;;;6.3;;
39294;SDS011;52361;52.100;5.248;2023-02-13T12:15:56;8.81;;;5.11;;
39294;SDS011;52361;52.100;5.248;2023-02-13T12:17:36;12.2;;;5.9;;
39294;SDS011;52361;52.100;5.248;2023-02-13T12:19:18;15.0;;;7.2;;
39294;SDS011;52361;52.100;5.248;2023-02-13T12:22:48;13.1;;;7.2;;
39294;SDS011;52361;52.100;5.248;2023-02-13T12:24:47;9.81;;;5.6;;
39294;SDS011;52361;52.100;5.248;2023-02-13T12:26:50;12.3;;;6.0;;
39294;SDS011;52361;52.100;5.248;2023-02-13T12:28:36;11.0;;;6.5;;
39294;SDS011;52361;52.100;5.248;2023-02-13T12:30:38;15.3;;;6.9;;
39294;SDS011;52361;52.100;5.248;2023-02-13T12:34:02;12.3;;;6.2;;
39294;SDS011;52361;52.100;5.248;2023-02-13T12:36:27;14.0;;;7.1;;
39294;SDS011;52361;52.100;5.248;2023-02-13T12:38:14;12.1;;;5.9;;
39294;SDS011;52361;52.100;5.248;2023-02-13T12:40:10;11.3;;;6.6;;
39294;SDS011;52361;52.100;5.248;2023-02-13T12:42:08;13.2;;;6.3;;
39294;SDS011;52361;52.100;5.248;2023-02-13T12:46:53;12.8;;;6.0;;
39294;SDS011;52361;52.100;5.248;2023-02-13T12:48:42;12.2;;;6.1;;
39294;SDS011;52361;52.100;5.248;2023-02-13T12:50:37;11.8;;;6.1;;
39294;SDS011;52361;52.100;5.248;2023-02-13T12:54:25;13.6;;;5.9;;
39294;SDS011;52361;52.100;5.248;2023-02-13T12:56:26;12.0;;;5.3;;
39294;SDS011;52361;52.100;5.248;2023-02-13T12:59:12;12.5;;;6.4;;
39294;SDS011;52361;52.100;5.248;2023-02-13T13:01:01;15.4;;;7.0;;
39294;SDS011;52361;52.100;5.248;2023-02-13T13:05:01;14.9;;;7.4;;
39294;SDS011;52361;52.100;5.248;2023-02-13T13:06:53;10.9;;;6.1;;
39294;SDS011;52361;52.100;5.248;2023-02-13T13:08:58;10.1;;;5.3;;
39294;SDS011;52361;52.100;5.248;2023-02-13T13:12:26;12.9;;;6.1;;
39294;SDS011;52361;52.100;5.248;2023-02-13T13:14:26;11.7;;;6.0;;
39294;SDS011;52361;52.100;5.248;2023-02-13T13:16:13;10.8;;;6.1;;
39294;SDS011;52361;52.100;5.248;2023-02-13T13:18:02;10.0;;;6.3;;
39294;SDS011;52361;52.100;5.248;2023-02-13T13:19:51;11.0;;;5.8;;
39294;SDS011;52361;52.100;5.248;2023-02-13T13:23:24;9.31;;;5.2;;
39294;SDS011;52361;52.100;5.248;2023-02-13T13:25:09;11.7;;;6.0;;
39294;SDS011;52361;52.100;5.248;2023-02-13T13:26:56;13.0;;;6.2;;
39294;SDS011;52361;52.100;5.248;2023-02-13T13:28:36;13.2;;;6.4;;
39294;SDS011;52361;52.100;5.248;2023-02-13T13:30:17;12.1;;;6.1;;
39294;SDS011;52361;52.100;5.248;2023-02-13T13:33:39;12.6;;;6.7;;
39294;SDS011;52361;52.100;5.248;2023-02-13T13:35:19;13.5;;;7.4;;